Time;durP1;ratioP1;P1;durP2;ratioP2;P2;SDS_P1;SDS_P2;PMS_P1;PMS_P2;Temp;Humidity;BMP_temperature;BMP_pressure;BME280_temperature;BME280_humidity;BME280_pressure;Samples;Min_cycle;Max_cycle;Signal;HPM_P1;HPM_P2
2022/07/27 00:02:13;;;;;;;4.63;2.80;;;;;;;-143.84;43.50;45001.47;5091715;28;20517;-70
2022/07/27 00:04:41;;;;;;;3.87;2.57;;;;;;;-143.84;43.25;44999.56;5091059;28;20432;-70
2022/07/27 00:07:08;;;;;;;3.03;2.83;;;;;;;-143.84;42.63;44991.94;5090565;28;20440;-70
2022/07/27 00:09:37;;;;;;;5.67;2.97;;;;;;;-143.84;42.42;44988.13;5090657;28;20833;-70
2022/07/27 00:12:04;;;;;;;2.80;2.60;;;;;;;-143.84;42.19;44999.56;5090949;28;20784;-70
2022/07/27 00:14:31;;;;;;;8.63;2.70;;;;;;;-143.84;42.07;45003.38;5090902;28;20444;-70
2022/07/27 00:16:59;;;;;;;2.30;2.20;;;;;;;-143.84;41.87;45007.19;5091039;28;20439;-70
2022/07/27 00:19:26;;;;;;;2.80;2.60;;;;;;;-143.84;42.00;44986.22;5072996;28;20938;-70
2022/07/27 00:21:53;;;;;;;4.00;2.17;;;;;;;-143.84;41.72;45009.09;5090978;28;20432;-70
2022/07/27 00:24:20;;;;;;;2.90;2.70;;;;;;;-143.84;42.04;45010.97;5090892;28;20580;-70
2022/07/27 00:26:49;;;;;;;2.57;2.37;;;;;;;-143.84;42.11;44980.53;5090711;28;20432;-70
2022/07/27 00:29:16;;;;;;;2.90;2.70;;;;;;;-143.84;42.10;44991.94;5091037;28;20479;-70
2022/07/27 00:31:43;;;;;;;2.80;2.60;;;;;;;-143.84;41.82;45012.88;5090702;28;20791;-70
2022/07/27 00:34:10;;;;;;;2.60;2.40;;;;;;;-143.84;41.89;45001.47;5088063;28;20440;-70
2022/07/27 00:36:37;;;;;;;2.67;2.47;;;;;;;-143.84;42.41;45001.47;5090056;28;20505;-70
2022/07/27 00:39:05;;;;;;;2.73;2.37;;;;;;;-143.84;41.96;45009.09;5090401;28;20455;-70
2022/07/27 00:41:32;;;;;;;6.70;2.87;;;;;;;-143.84;42.31;44999.56;5084148;28;20443;-70
2022/07/27 00:44:02;;;;;;;2.70;2.50;;;;;;;-143.84;42.37;45030.03;5090090;28;20460;-70
2022/07/27 00:46:29;;;;;;;14.57;2.93;;;;;;;-143.84;42.71;44988.13;5090205;28;20532;-70
2022/07/27 00:48:56;;;;;;;4.63;2.20;;;;;;;-143.84;42.66;45007.19;5090289;28;20471;-70
2022/07/27 00:51:25;;;;;;;5.30;2.83;;;;;;;-143.84;42.73;44971.00;5090437;28;20440;-70
2022/07/27 00:53:53;;;;;;;2.70;2.50;;;;;;;-143.84;42.96;44965.28;5090031;28;21010;-70
2022/07/27 00:56:21;;;;;;;2.40;2.30;;;;;;;-143.84;43.37;44976.72;5090291;28;20463;-70
2022/07/27 00:58:50;;;;;;;3.60;2.90;;;;;;;-143.84;43.65;44999.56;5090286;28;20436;-70
2022/07/27 01:01:20;;;;;;;3.50;2.40;;;;;;;-143.84;43.70;44999.56;5081690;28;20452;-70
2022/07/27 01:03:47;;;;;;;4.17;2.50;;;;;;;-143.84;43.29;44982.41;5069834;28;20966;-70
2022/07/27 01:06:15;;;;;;;3.30;2.47;;;;;;;-143.84;43.39;45010.97;5069945;28;20429;-70
2022/07/27 01:08:42;;;;;;;6.13;2.60;;;;;;;-143.84;43.25;44990.03;5069859;28;20444;-70
2022/07/27 01:11:11;;;;;;;3.20;2.10;;;;;;;-143.84;43.48;44995.75;5069517;28;21459;-70
2022/07/27 01:13:38;;;;;;;2.87;2.57;;;;;;;-143.84;43.64;45001.47;5069628;28;20483;-70
2022/07/27 01:16:07;;;;;;;2.20;2.10;;;;;;;-143.84;43.46;45010.97;5069554;28;20437;-70
2022/07/27 01:18:37;;;;;;;5.17;2.20;;;;;;;-143.84;43.36;45009.09;5081392;28;20980;-70
2022/07/27 01:21:05;;;;;;;4.03;1.90;;;;;;;-143.84;43.38;45012.88;5085255;28;20454;-70
2022/07/27 01:23:34;;;;;;;5.50;3.00;;;;;;;-143.84;43.16;44991.94;5085169;28;20999;-70
2022/07/27 01:26:02;;;;;;;3.03;2.73;;;;;;;-143.84;43.36;44995.75;5089642;28;20444;-70
2022/07/27 01:28:30;;;;;;;4.70;2.40;;;;;;;-143.84;43.30;44999.56;5089722;28;20436;-70
2022/07/27 01:30:57;;;;;;;6.87;2.60;;;;;;;-143.84;43.53;45001.47;5089404;28;20471;-70
2022/07/27 01:33:25;;;;;;;2.73;2.50;;;;;;;-143.84;43.50;45007.19;5090761;28;20463;-70
2022/07/27 01:35:55;;;;;;;10.67;2.60;;;;;;;-143.84;43.79;45007.19;5109705;28;20435;-70
2022/07/27 01:38:22;;;;;;;4.57;2.50;;;;;;;-143.84;44.04;44993.84;5109490;28;20442;-70
2022/07/27 01:40:52;;;;;;;2.37;2.20;;;;;;;-143.84;44.21;45014.78;5086269;28;20490;-70
2022/07/27 01:43:20;;;;;;;9.13;2.87;;;;;;;-143.84;43.98;44995.75;5089335;28;20440;-70
2022/07/27 01:45:47;;;;;;;2.80;2.60;;;;;;;-143.84;43.93;45016.69;5088827;28;20447;-69
2022/07/27 01:48:14;;;;;;;2.90;2.70;;;;;;;-143.84;43.58;45031.94;5088612;28;20444;-70
2022/07/27 01:50:41;;;;;;;5.03;2.20;;;;;;;-143.84;43.96;45014.78;5088690;28;20483;-70
2022/07/27 01:53:08;;;;;;;3.13;2.80;;;;;;;-143.84;43.90;45007.19;5089398;28;20941;-69
2022/07/27 01:55:36;;;;;;;2.80;2.60;;;;;;;-143.84;44.17;45005.28;5089227;28;20454;-70
2022/07/27 01:58:06;;;;;;;2.60;2.40;;;;;;;-143.84;44.28;45028.13;5089668;28;21189;-70
2022/07/27 02:00:33;;;;;;;6.73;2.47;;;;;;;-143.84;44.36;44984.31;5088778;28;20489;-70
2022/07/27 02:03:01;;;;;;;2.63;2.50;;;;;;;-143.84;44.34;45005.28;5088567;28;20469;-70
2022/07/27 02:05:28;;;;;;;3.03;2.83;;;;;;;-143.84;44.45;45012.88;5089028;28;20451;-70
2022/07/27 02:07:56;;;;;;;2.53;2.30;;;;;;;-143.84;44.67;44965.28;5089175;28;20493;-70
2022/07/27 02:10:23;;;;;;;3.90;3.00;;;;;;;-143.84;44.60;45012.88;5088423;28;20561;-70
2022/07/27 02:12:49;;;;;;;4.73;2.20;;;;;;;-143.84;44.73;45033.84;5088925;28;20505;-70
2022/07/27 02:15:20;;;;;;;2.87;2.67;;;;;;;-143.84;44.93;45010.97;5089054;28;20440;-70
2022/07/27 02:17:48;;;;;;;3.93;2.53;;;;;;;-143.84;44.72;45007.19;5070898;28;20949;-70
2022/07/27 02:20:17;;;;;;;3.10;2.80;;;;;;;-143.84;44.66;45009.09;5088807;28;20473;-70
2022/07/27 02:22:45;;;;;;;2.57;2.37;;;;;;;-143.84;44.67;44986.22;5088660;28;20508;-70
2022/07/27 02:25:14;;;;;;;3.93;2.80;;;;;;;-143.84;44.98;44995.75;5088798;28;20448;-70
2022/07/27 02:27:42;;;;;;;3.03;2.33;;;;;;;-143.84;45.09;44993.84;5088764;28;20445;-70
2022/07/27 02:30:11;;;;;;;11.33;3.37;;;;;;;-143.84;45.51;45001.47;5088854;28;20475;-70
2022/07/27 02:32:42;;;;;;;3.00;2.70;;;;;;;-143.84;45.80;45010.97;5088387;28;20505;-70
2022/07/27 02:35:09;;;;;;;3.20;2.77;;;;;;;-143.84;46.16;45024.31;5088771;28;21307;-70
2022/07/27 02:37:37;;;;;;;5.57;2.07;;;;;;;-143.84;46.12;44993.84;5088129;28;20447;-70
2022/07/27 02:40:05;;;;;;;2.90;2.70;;;;;;;-143.84;46.63;45020.50;5088944;28;20452;-70
2022/07/27 02:42:32;;;;;;;2.50;2.30;;;;;;;-143.84;46.90;44982.41;5088553;28;20436;-70
2022/07/27 02:44:59;;;;;;;3.23;2.93;;;;;;;-143.84;46.23;45010.97;5088875;28;20432;-70
2022/07/27 02:47:26;;;;;;;8.40;2.90;;;;;;;-143.84;45.76;44999.56;5088498;28;20505;-70
2022/07/27 02:49:55;;;;;;;2.47;2.27;;;;;;;-143.84;45.78;45024.31;5088585;28;20483;-70
2022/07/27 02:52:22;;;;;;;2.77;2.53;;;;;;;-143.84;45.67;45020.50;5088317;28;20513;-70
2022/07/27 02:54:49;;;;;;;3.13;2.93;;;;;;;-143.84;44.97;45022.41;5088457;28;20512;-69
2022/07/27 02:57:16;;;;;;;11.37;2.90;;;;;;;-143.84;44.96;44984.31;5090303;28;20459;-70
2022/07/27 02:59:43;;;;;;;8.83;3.23;;;;;;;-143.84;44.64;45009.09;5112769;28;20434;-70
2022/07/27 03:02:11;;;;;;;2.60;2.50;;;;;;;-143.84;44.56;44995.75;5113049;28;20434;-69
2022/07/27 03:04:38;;;;;;;5.40;2.53;;;;;;;-143.84;44.02;44997.66;5112785;28;20849;-68
2022/07/27 03:07:07;;;;;;;4.03;3.20;;;;;;;-143.84;43.93;45001.47;5112697;28;20948;-69
2022/07/27 03:09:35;;;;;;;4.50;2.80;;;;;;;-143.84;43.88;45010.97;5112098;28;20446;-69
2022/07/27 03:12:02;;;;;;;3.23;2.90;;;;;;;-143.84;43.70;45018.59;5101816;28;20450;-70
2022/07/27 03:14:30;;;;;;;3.07;2.77;;;;;;;-143.84;43.38;45022.41;5092246;28;20810;-68
2022/07/27 03:16:57;;;;;;;4.60;3.40;;;;;;;-143.84;43.50;45005.28;5091872;28;20440;-69
2022/07/27 03:19:24;;;;;;;6.50;2.60;;;;;;;-143.84;43.44;44999.56;5091643;28;20444;-69
2022/07/27 03:21:51;;;;;;;5.27;3.13;;;;;;;-143.84;43.13;44995.75;5091530;28;20524;-69
2022/07/27 03:24:20;;;;;;;5.40;3.97;;;;;;;-143.84;43.54;45007.19;5091376;28;20535;-69
2022/07/27 03:26:47;;;;;;;9.37;3.00;;;;;;;-143.84;43.28;45026.22;5092000;28;21032;-69
2022/07/27 03:29:14;;;;;;;8.60;4.77;;;;;;;-143.84;43.26;45007.19;5091931;28;20534;-69
2022/07/27 03:31:43;;;;;;;10.33;4.70;;;;;;;-143.84;42.99;44999.56;5090990;28;20517;-69
2022/07/27 03:34:10;;;;;;;6.23;4.80;;;;;;;-143.84;43.08;44999.56;5090980;28;20453;-69
2022/07/27 03:36:37;;;;;;;8.47;5.20;;;;;;;-143.84;43.01;45005.28;5091591;28;20451;-69
2022/07/27 03:39:04;;;;;;;4.23;3.80;;;;;;;-143.84;42.89;45007.19;5091756;28;20983;-69
2022/07/27 03:41:33;;;;;;;5.47;3.80;;;;;;;-143.84;43.13;44993.84;5091900;28;20440;-68
2022/07/27 03:44:00;;;;;;;5.20;3.53;;;;;;;-143.84;42.45;45007.19;5091742;28;21015;-68
2022/07/27 03:46:27;;;;;;;4.27;3.73;;;;;;;-143.84;42.39;45022.41;5091486;28;20501;-69
2022/07/27 03:48:55;;;;;;;11.83;3.70;;;;;;;-143.84;41.31;45003.38;5091341;28;20993;-69
2022/07/27 03:51:23;;;;;;;3.30;3.00;;;;;;;-143.84;40.46;44984.31;5091317;28;20486;-69
2022/07/27 03:53:50;;;;;;;3.47;3.07;;;;;;;-143.84;39.39;44971.00;5091542;28;20444;-69
2022/07/27 03:56:17;;;;;;;6.50;3.27;;;;;;;-143.84;38.72;44967.19;5091457;28;20440;-69
2022/07/27 03:58:46;;;;;;;3.43;3.13;;;;;;;-143.84;37.67;44955.75;5091303;28;20497;-69
2022/07/27 04:01:13;;;;;;;3.70;3.40;;;;;;;-143.84;36.58;44950.06;5091106;28;20439;-69
2022/07/27 04:03:40;;;;;;;4.67;3.00;;;;;;;-143.84;35.44;44931.00;5091185;28;20520;-69
2022/07/27 04:06:07;;;;;;;3.93;3.63;;;;;;;-143.84;34.85;44932.91;5091418;28;20490;-69
2022/07/27 04:08:34;;;;;;;4.33;2.87;;;;;;;-143.84;34.60;44896.75;5090839;28;20436;-69
2022/07/27 04:11:01;;;;;;;5.17;3.63;;;;;;;-143.84;33.78;44927.19;5090837;28;20552;-69
2022/07/27 04:13:29;;;;;;;3.80;2.90;;;;;;;-143.84;33.59;44908.16;5091262;28;20865;-69
2022/07/27 04:15:57;;;;;;;7.00;2.80;;;;;;;-143.84;33.37;44894.84;5090909;28;20928;-69
2022/07/27 04:18:25;;;;;;;5.70;2.93;;;;;;;-143.84;33.53;44904.34;5091131;28;20444;-69
2022/07/27 04:20:52;;;;;;;3.10;2.70;;;;;;;-143.84;33.95;44866.28;5072957;28;20443;-69
2022/07/27 04:23:20;;;;;;;8.83;3.30;;;;;;;-143.84;33.26;44894.84;5091147;28;20518;-69
2022/07/27 04:25:47;;;;;;;4.07;3.53;;;;;;;-143.84;32.60;44896.75;5090730;28;20440;-69
2022/07/27 04:28:14;;;;;;;7.87;3.67;;;;;;;-143.84;33.02;44887.22;5090169;28;20448;-69
2022/07/27 04:30:41;;;;;;;3.10;2.90;;;;;;;-143.84;33.00;44881.50;5093700;28;20528;-69
2022/07/27 04:33:09;;;;;;;6.83;3.17;;;;;;;-143.84;33.11;44900.53;5105125;28;20833;-69
2022/07/27 04:35:37;;;;;;;13.50;2.77;;;;;;;-143.84;33.40;44889.13;5108134;28;20447;-69
2022/07/27 04:38:04;;;;;;;9.70;3.47;;;;;;;-143.84;33.17;44896.75;5110889;28;20450;-69
2022/07/27 04:40:32;;;;;;;4.27;3.57;;;;;;;-143.84;32.99;44885.31;5091642;28;20456;-69
2022/07/27 04:43:00;;;;;;;6.83;3.47;;;;;;;-143.84;32.94;44866.28;5090253;28;20461;-69
2022/07/27 04:45:27;;;;;;;4.53;3.70;;;;;;;-143.84;32.80;44873.88;5090517;28;20551;-69
2022/07/27 04:47:54;;;;;;;10.63;4.37;;;;;;;-143.84;32.87;44879.59;5090305;28;20510;-70
2022/07/27 04:50:23;;;;;;;8.33;4.40;;;;;;;-143.84;32.90;44881.50;5090342;28;20471;-70
2022/07/27 04:52:50;;;;;;;6.87;4.60;;;;;;;-143.84;32.38;44864.38;5090305;28;20452;-70
2022/07/27 04:55:18;;;;;;;6.77;4.30;;;;;;;-143.84;32.69;44868.19;5093358;28;20432;-69
2022/07/27 04:57:45;;;;;;;5.77;4.47;;;;;;;-143.84;32.79;44881.50;5099979;28;20508;-69
2022/07/27 05:00:13;;;;;;;11.73;4.00;;;;;;;-143.84;33.41;44870.09;5101215;28;20967;-69
2022/07/27 05:02:40;;;;;;;3.30;2.93;;;;;;;-143.84;32.57;44862.47;5110335;28;20431;-70
2022/07/27 05:05:08;;;;;;;12.07;3.50;;;;;;;-143.84;32.66;44851.03;5110579;28;20435;-69
2022/07/27 05:07:37;;;;;;;3.03;2.80;;;;;;;-143.84;32.92;44811.06;5110402;28;20446;-72
2022/07/27 05:10:05;;;;;;;9.50;3.90;;;;;;;-143.84;33.15;44864.38;5109900;28;20486;-73
2022/07/27 05:12:32;;;;;;;3.93;3.30;;;;;;;-143.84;33.03;44885.31;5110244;28;20435;-70
2022/07/27 05:14:59;;;;;;;4.47;2.83;;;;;;;-143.84;32.21;44877.69;5109707;28;20430;-69
2022/07/27 05:17:26;;;;;;;7.53;3.43;;;;;;;-143.84;32.46;44881.50;5092083;28;20505;-68
2022/07/27 05:19:53;;;;;;;5.93;3.43;;;;;;;-143.84;33.08;44868.19;5089279;28;20448;-69
2022/07/27 05:22:20;;;;;;;5.03;3.37;;;;;;;-143.84;33.06;44858.66;5089722;28;20436;-68
2022/07/27 05:24:49;;;;;;;3.77;3.47;;;;;;;-143.84;32.54;44847.22;5089800;28;20447;-68
2022/07/27 05:27:16;;;;;;;5.77;3.17;;;;;;;-143.84;32.24;44894.84;5085807;28;20452;-72
2022/07/27 05:29:43;;;;;;;4.23;3.40;;;;;;;-143.84;32.86;44858.66;5089688;28;20436;-73
2022/07/27 05:32:10;;;;;;;12.33;3.57;;;;;;;-143.84;32.37;44875.78;5089343;28;20869;-72
2022/07/27 05:34:38;;;;;;;5.83;3.20;;;;;;;-143.84;32.65;44858.66;5089943;28;20501;-73
2022/07/27 05:37:05;;;;;;;4.70;4.03;;;;;;;-143.84;32.25;44847.22;5089680;28;20850;-71
2022/07/27 05:39:32;;;;;;;5.97;3.17;;;;;;;-143.84;32.24;44845.31;5089395;28;20589;-72
2022/07/27 05:42:00;;;;;;;8.93;3.30;;;;;;;-143.84;32.22;44851.03;5089732;28;20509;-72
2022/07/27 05:44:28;;;;;;;6.70;3.67;;;;;;;-143.84;32.29;44843.44;5089356;28;20505;-73
2022/07/27 05:46:56;;;;;;;9.80;3.63;;;;;;;-143.84;33.02;44852.94;5089440;28;20478;-72
2022/07/27 05:49:23;;;;;;;3.93;3.50;;;;;;;-143.84;33.35;44877.69;5089308;28;20444;-72
2022/07/27 05:51:50;;;;;;;13.10;3.20;;;;;;;-143.84;33.34;44860.56;5089265;28;20478;-72
2022/07/27 05:54:18;;;;;;;4.63;3.30;;;;;;;-143.84;33.54;44862.47;5089037;28;20451;-72
2022/07/27 05:56:45;;;;;;;4.47;2.83;;;;;;;-143.84;33.46;44870.09;5089032;28;20436;-72
2022/07/27 05:59:14;;;;;;;6.60;4.00;;;;;;;-143.84;33.50;44858.66;5088990;28;20444;-73
2022/07/27 06:01:41;;;;;;;9.63;3.40;;;;;;;-143.84;33.48;44868.19;5089278;28;20448;-71
2022/07/27 06:04:08;;;;;;;13.20;3.77;;;;;;;-143.84;32.74;44875.78;5089154;28;20471;-72
2022/07/27 06:09:20;;;;;;;5.73;3.37;;;;;;;-143.84;33.06;44832.00;5087610;28;20480;-73
2022/07/27 06:11:47;;;;;;;4.47;3.97;;;;;;;-143.84;32.75;44822.47;5087713;28;20484;-72
2022/07/27 06:14:16;;;;;;;10.17;4.50;;;;;;;-143.84;31.84;44833.91;5087786;28;20502;-72
2022/07/27 06:16:43;;;;;;;4.03;3.73;;;;;;;-143.84;31.83;44814.88;5087763;28;20476;-72
2022/07/27 06:19:10;;;;;;;10.87;5.07;;;;;;;-143.84;32.15;44830.09;5088639;28;20432;-72
2022/07/27 06:21:37;;;;;;;7.40;6.63;;;;;;;-143.84;31.62;44845.31;5088509;28;20509;-72
2022/07/27 06:24:05;;;;;;;5.87;5.37;;;;;;;-143.84;32.18;44832.00;5089191;28;20447;-72
2022/07/27 06:26:32;;;;;;;4.97;3.87;;;;;;;-143.84;32.03;44860.56;5088949;28;20431;-72
2022/07/27 06:29:00;;;;;;;4.73;3.17;;;;;;;-143.84;32.38;44856.75;5086255;28;20444;-71
2022/07/27 06:31:29;;;;;;;6.57;3.17;;;;;;;-143.84;32.54;44832.00;5070906;28;20852;-71
2022/07/27 06:33:56;;;;;;;5.50;3.60;;;;;;;-143.84;32.25;44833.91;5072822;28;20938;-71
2022/07/27 06:36:24;;;;;;;3.30;3.10;;;;;;;-143.84;32.42;44841.53;5072857;28;20848;-72
2022/07/27 06:38:51;;;;;;;5.43;4.10;;;;;;;-143.84;32.12;44832.00;5077062;28;20827;-71
2022/07/27 06:41:19;;;;;;;5.83;3.23;;;;;;;-143.84;32.71;44841.53;5110332;28;20426;-72
2022/07/27 06:43:46;;;;;;;4.10;3.23;;;;;;;-143.84;33.37;44832.00;5113000;28;20807;-72
2022/07/27 06:46:13;;;;;;;8.43;3.07;;;;;;;-143.84;32.54;44837.72;5112970;28;20446;-71
2022/07/27 06:48:42;;;;;;;3.63;3.30;;;;;;;-143.84;32.91;44835.81;5113001;28;20454;-72
2022/07/27 06:51:09;;;;;;;3.00;2.80;;;;;;;-143.84;31.87;44839.63;5113350;28;20546;-71
2022/07/27 06:53:37;;;;;;;5.20;3.40;;;;;;;-143.84;32.69;44845.31;5113005;28;20439;-71
2022/07/27 06:56:07;;;;;;;12.90;3.90;;;;;;;-143.84;33.11;44795.81;5112946;28;21149;-72
2022/07/27 06:58:36;;;;;;;8.60;3.50;;;;;;;-143.84;33.57;44830.09;5112365;28;20485;-71
2022/07/27 07:01:03;;;;;;;7.30;3.97;;;;;;;-143.84;34.38;44833.91;5112644;28;20457;-73
2022/07/27 07:03:30;;;;;;;13.90;7.70;;;;;;;-143.84;34.56;44845.31;5106515;28;20508;-71
2022/07/27 07:05:59;;;;;;;13.77;7.33;;;;;;;-143.84;35.01;44849.13;5092394;28;20450;-70
2022/07/27 07:08:26;;;;;;;7.30;4.17;;;;;;;-143.84;34.00;44837.72;5092277;28;20444;-70
2022/07/27 07:10:54;;;;;;;3.23;2.90;;;;;;;-143.84;35.60;44845.31;5091648;28;20549;-71
2022/07/27 07:13:22;;;;;;;3.97;2.80;;;;;;;-143.84;35.42;44807.25;5092460;28;20512;-71
2022/07/27 07:15:49;;;;;;;6.70;3.50;;;;;;;-143.84;34.89;44839.63;5092305;28;20852;-70
2022/07/27 07:18:16;;;;;;;4.33;3.47;;;;;;;-143.84;35.26;44832.00;5092083;28;20443;-70
2022/07/27 07:20:43;;;;;;;6.13;3.00;;;;;;;-143.84;34.98;44816.78;5092140;28;20497;-70
2022/07/27 07:23:12;;;;;;;4.33;3.60;;;;;;;-143.84;34.31;44832.00;5092000;28;20440;-71
2022/07/27 07:25:40;;;;;;;9.33;3.17;;;;;;;-143.84;33.11;44847.22;5091713;28;20443;-71
2022/07/27 07:28:08;;;;;;;3.77;3.00;;;;;;;-143.84;34.41;44835.81;5092416;28;20444;-71
2022/07/27 07:30:35;;;;;;;6.70;3.97;;;;;;;-143.84;35.42;44835.81;5092016;28;20443;-71
2022/07/27 07:33:02;;;;;;;24.40;21.03;;;;;;;-143.84;34.42;44832.00;5091863;28;20491;-70
2022/07/27 07:35:30;;;;;;;4.03;3.73;;;;;;;-143.84;32.30;44822.47;5091383;28;21321;-71
2022/07/27 07:37:57;;;;;;;4.50;4.10;;;;;;;-143.84;32.66;44833.91;5091416;28;20477;-71
2022/07/27 07:40:25;;;;;;;4.33;3.97;;;;;;;-143.84;32.29;44833.91;5091779;28;21233;-71
2022/07/27 07:42:54;;;;;;;4.80;3.67;;;;;;;-143.84;33.43;44852.94;5090929;28;20791;-71
2022/07/27 07:45:23;;;;;;;3.80;3.20;;;;;;;-143.84;33.93;44841.53;5088803;28;20443;-71
2022/07/27 07:47:51;;;;;;;5.00;3.77;;;;;;;-143.84;33.25;44812.97;5091814;28;20505;-71
2022/07/27 07:50:19;;;;;;;12.50;3.80;;;;;;;-143.84;33.32;44832.00;5091485;28;20440;-70
2022/07/27 07:52:48;;;;;;;3.60;3.33;;;;;;;-143.84;32.28;44799.63;5091045;28;21012;-71
2022/07/27 07:55:15;;;;;;;3.60;3.30;;;;;;;-143.84;32.60;44826.28;5091318;28;20440;-71
2022/07/27 07:57:44;;;;;;;6.53;3.47;;;;;;;-143.84;31.93;44820.56;5091342;28;20443;-71
2022/07/27 08:00:12;;;;;;;4.30;3.90;;;;;;;-143.84;31.32;44847.22;5091507;28;20444;-71
2022/07/27 08:02:47;;;;;;;5.60;3.60;;;;;;;-143.84;31.97;44845.31;5091321;28;20551;-71
2022/07/27 08:05:15;;;;;;;3.37;3.07;;;;;;;-143.84;31.52;44822.47;5091695;28;20443;-70
2022/07/27 08:07:43;;;;;;;12.47;3.67;;;;;;;-143.84;32.54;44807.25;5091200;28;20534;-68
2022/07/27 08:10:12;;;;;;;7.63;4.10;;;;;;;-143.84;31.82;44830.09;5090965;28;20907;-68
2022/07/27 08:12:42;;;;;;;9.07;3.70;;;;;;;-143.84;32.64;44832.00;5091090;28;20515;-68
2022/07/27 08:15:13;;;;;;;7.30;3.20;;;;;;;-143.84;32.61;44807.25;5091106;28;20460;-68
2022/07/27 08:17:41;;;;;;;9.17;3.00;;;;;;;-143.84;31.96;44828.19;5090953;28;20451;-68
2022/07/27 08:20:09;;;;;;;3.67;3.20;;;;;;;-143.84;33.63;44824.38;5090994;28;20515;-72
2022/07/27 08:22:36;;;;;;;3.37;3.07;;;;;;;-143.84;34.37;44826.28;5091266;28;20443;-68
2022/07/27 08:25:05;;;;;;;6.70;3.10;;;;;;;-143.84;33.50;44860.56;5090618;28;20885;-68
2022/07/27 08:27:32;;;;;;;10.63;4.50;;;;;;;-143.84;36.39;44833.91;5090795;28;20444;-68
2022/07/27 08:29:59;;;;;;;15.73;4.17;;;;;;;-143.84;35.94;44822.47;5090468;28;20444;-68
2022/07/27 08:32:28;;;;;;;5.37;3.87;;;;;;;-143.84;35.82;44841.53;5090431;28;20480;-68
2022/07/27 08:34:56;;;;;;;5.60;3.53;;;;;;;-143.84;36.85;44835.81;5090523;28;20444;-69
2022/07/27 08:37:23;;;;;;;5.00;3.60;;;;;;;-143.84;37.21;44837.72;5090820;28;20436;-72
2022/07/27 08:39:51;;;;;;;8.23;3.83;;;;;;;-143.84;38.09;44860.56;5090482;28;20439;-70
2022/07/27 08:42:18;;;;;;;4.63;3.53;;;;;;;-143.84;39.41;44847.22;5089780;28;20440;-70
2022/07/27 08:44:46;;;;;;;3.60;3.30;;;;;;;-143.84;38.87;44812.97;5089993;28;20443;-70
2022/07/27 08:47:15;;;;;;;3.43;3.23;;;;;;;-143.84;38.80;44839.63;5090693;28;20432;-69
2022/07/27 08:49:45;;;;;;;5.83;2.73;;;;;;;-143.84;39.89;44885.31;5090553;28;20547;-68
2022/07/27 08:52:13;;;;;;;3.13;3.03;;;;;;;-143.84;38.26;44845.31;5090371;28;20483;-68
2022/07/27 08:54:41;;;;;;;10.13;3.90;;;;;;;-143.84;39.04;44851.03;5089322;28;20428;-69
2022/07/27 08:57:09;;;;;;;6.30;3.17;;;;;;;-143.84;38.18;44864.38;5090268;28;20800;-69
2022/07/27 08:59:37;;;;;;;11.60;4.47;;;;;;;-143.84;36.43;44858.66;5090061;28;20505;-68
2022/07/27 09:02:05;;;;;;;4.90;4.50;;;;;;;-143.84;37.29;44868.19;5090086;28;20444;-69
2022/07/27 09:04:32;;;;;;;3.77;3.30;;;;;;;-143.84;38.04;44870.09;5089882;28;20497;-68
2022/07/27 09:07:01;;;;;;;7.17;3.90;;;;;;;-143.84;37.77;44845.31;5089999;28;20428;-68
2022/07/27 09:09:28;;;;;;;4.10;3.80;;;;;;;-143.84;38.83;44847.22;5089713;28;20436;-69
2022/07/27 09:12:07;;;;;;;4.97;3.30;;;;;;;-143.84;38.92;44858.66;5089971;28;20487;-68
2022/07/27 09:14:38;;;;;;;7.10;3.43;;;;;;;-143.84;39.21;44833.91;5089997;28;20439;-68
2022/07/27 09:17:20;;;;;;;5.07;3.67;;;;;;;-143.84;38.52;44860.56;5089834;28;20957;-68
2022/07/27 09:19:54;;;;;;;3.43;3.10;;;;;;;-143.84;37.74;44852.94;5089836;28;21089;-69
2022/07/27 09:22:39;;;;;;;3.57;3.27;;;;;;;-143.84;39.86;44875.78;5086811;28;20490;-68
2022/07/27 09:25:07;;;;;;;7.17;3.27;;;;;;;-143.84;39.18;44854.84;5088345;28;20456;-69
2022/07/27 09:27:34;;;;;;;4.67;3.10;;;;;;;-143.84;39.97;44858.66;5085546;28;20960;-68
2022/07/27 09:30:03;;;;;;;3.00;2.63;;;;;;;-143.84;39.48;44841.53;5088993;28;20455;-69
2022/07/27 09:32:30;;;;;;;3.83;3.40;;;;;;;-143.84;39.46;44879.59;5088629;28;20548;-69
2022/07/27 09:34:58;;;;;;;5.60;3.30;;;;;;;-143.84;39.86;44852.94;5088686;28;20465;-69
2022/07/27 09:37:26;;;;;;;6.93;4.20;;;;;;;-143.84;40.14;44849.13;5088452;28;20456;-69
2022/07/27 09:40:13;;;;;;;12.20;3.93;;;;;;;-143.84;37.99;44851.03;5088715;28;20444;-69
2022/07/27 09:42:40;;;;;;;7.00;3.60;;;;;;;-143.84;40.79;44889.13;5088371;28;20451;-69
2022/07/27 09:45:32;;;;;;;7.20;3.83;;;;;;;-143.84;39.77;44832.00;5085275;28;20447;-69
2022/07/27 09:48:11;;;;;;;6.63;3.70;;;;;;;-143.84;39.66;44854.84;5086788;28;20447;-68
2022/07/27 09:50:40;;;;;;;5.47;3.93;;;;;;;-143.84;39.29;44851.03;5088420;28;20447;-69
2022/07/27 09:53:21;;;;;;;4.13;3.40;;;;;;;-143.84;39.05;44839.63;5088447;28;20558;-69
2022/07/27 09:56:00;;;;;;;3.90;3.60;;;;;;;-143.84;40.57;44852.94;5086600;28;20447;-69
2022/07/27 09:58:42;;;;;;;7.13;3.80;;;;;;;-143.84;42.35;44887.22;5088572;28;20466;-69
2022/07/27 10:01:12;;;;;;;5.27;3.70;;;;;;;-143.84;42.90;44879.59;5088003;28;20443;-69
2022/07/27 10:03:40;;;;;;;10.10;3.97;;;;;;;-143.84;42.73;44877.69;5088106;28;20483;-69
2022/07/27 10:06:09;;;;;;;9.70;4.03;;;;;;;-143.84;44.36;44883.41;5087561;28;20444;-69
2022/07/27 10:08:37;;;;;;;15.37;4.57;;;;;;;-143.84;43.40;44883.41;5088334;28;20451;-69
2022/07/27 10:11:06;;;;;;;6.83;3.97;;;;;;;-143.84;45.40;44892.94;5086570;28;20523;-68
2022/07/27 10:13:33;;;;;;;8.87;4.17;;;;;;;-143.84;45.47;44862.47;5085822;28;20487;-69
2022/07/27 10:16:03;;;;;;;4.47;4.07;;;;;;;-143.84;47.49;44894.84;5088092;28;20432;-69
2022/07/27 10:18:52;;;;;;;7.37;4.07;;;;;;;-143.84;48.34;44885.31;5088103;28;20448;-69
2022/07/27 10:21:20;;;;;;;5.20;4.40;;;;;;;-143.84;47.86;44894.84;5087686;28;20452;-69
2022/07/27 10:23:56;;;;;;;4.93;4.50;;;;;;;-143.84;48.19;44892.94;5087369;28;20451;-69
2022/07/27 10:26:31;;;;;;;12.73;4.37;;;;;;;-143.84;48.23;44900.53;5086079;28;20451;-69
2022/07/27 10:29:00;;;;;;;4.47;3.80;;;;;;;-143.84;49.00;44908.16;5084092;28;21085;-69
2022/07/27 10:31:31;;;;;;;5.03;4.47;;;;;;;-143.84;47.92;44891.03;5082804;28;20953;-69
2022/07/27 10:34:00;;;;;;;4.27;3.87;;;;;;;-143.84;47.83;44881.50;5087402;28;20487;-69
2022/07/27 10:36:46;;;;;;;5.83;4.23;;;;;;;-143.84;49.20;44921.50;5084487;28;21273;-69
2022/07/27 10:39:34;;;;;;;4.23;3.87;;;;;;;-143.84;49.91;44921.50;5086223;28;21107;-69
2022/07/27 10:42:24;;;;;;;7.20;3.43;;;;;;;-143.84;50.02;44894.84;5087433;28;20459;-69
2022/07/27 10:44:59;;;;;;;11.20;3.73;;;;;;;-143.84;50.36;44894.84;5086515;28;20460;-69
2022/07/27 10:47:36;;;;;;;5.57;3.40;;;;;;;-143.84;50.91;44908.16;5087806;28;20454;-69
2022/07/27 10:50:30;;;;;;;7.10;2.60;;;;;;;-143.84;51.07;44923.41;5084050;28;21021;-68
2022/07/27 10:53:03;;;;;;;9.13;3.37;;;;;;;-143.84;53.06;44891.03;5086576;28;20476;-68
2022/07/27 10:55:47;;;;;;;2.60;2.50;;;;;;;-143.84;54.35;44910.06;5087541;28;20447;-68
2022/07/27 10:58:50;;;;;;;4.87;2.60;;;;;;;-143.84;54.83;44908.16;5093437;28;20451;-69
2022/07/27 11:01:22;;;;;;;3.57;3.03;;;;;;;-143.84;54.55;44929.09;5086280;28;20447;-69
2022/07/27 11:03:54;;;;;;;6.77;3.00;;;;;;;-143.84;56.05;44904.34;5081125;28;20879;-68
2022/07/27 11:06:30;;;;;;;3.00;2.70;;;;;;;-143.84;53.00;44911.97;5087325;28;20440;-68
2022/07/27 11:08:59;;;;;;;5.90;3.10;;;;;;;-143.84;54.15;44908.16;5088730;28;20952;-68
2022/07/27 11:11:27;;;;;;;3.10;2.50;;;;;;;-143.84;55.33;44915.78;5087245;28;20577;-69
2022/07/27 11:13:58;;;;;;;4.23;2.80;;;;;;;-143.84;55.56;44942.44;5087590;28;20491;-68
2022/07/27 11:16:28;;;;;;;4.70;2.60;;;;;;;-143.84;56.42;44925.31;5087586;28;20458;-68
2022/07/27 11:19:05;;;;;;;9.63;3.27;;;;;;;-143.84;56.54;44929.09;5090029;28;20501;-68
2022/07/27 11:21:35;;;;;;;5.13;3.60;;;;;;;-143.84;57.00;44927.19;5090941;28;20443;-68
2022/07/27 11:24:05;;;;;;;3.20;3.00;;;;;;;-143.84;59.43;44940.53;5090139;28;20501;-69
2022/07/27 11:26:39;;;;;;;6.93;3.13;;;;;;;-143.84;60.46;44906.25;5091135;28;20451;-68
2022/07/27 11:29:10;;;;;;;6.33;3.43;;;;;;;-143.84;60.92;44919.59;5090205;28;20539;-68